createdAt,value
2018-09-19T00:01:14.927Z,30.23
2018-09-19T00:03:43.345Z,24.00
2018-09-19T00:06:11.715Z,21.57
2018-09-19T00:08:40.310Z,23.50
2018-09-19T00:11:08.872Z,27.93
2018-09-19T00:13:37.375Z,18.50
2018-09-19T00:16:05.770Z,17.23
2018-09-19T00:18:34.336Z,16.63
2018-09-19T00:21:02.898Z,24.00
2018-09-19T00:23:31.403Z,29.60
2018-09-19T00:25:59.859Z,23.57
2018-09-19T00:28:28.258Z,24.20
2018-09-19T00:30:56.634Z,25.07
2018-09-19T00:33:25.031Z,16.10
2018-09-19T00:35:53.397Z,18.77
2018-09-19T00:38:21.783Z,18.93
2018-09-19T00:40:50.160Z,17.53
2018-09-19T00:43:18.545Z,27.43
2018-09-19T00:45:46.918Z,23.97
2018-09-19T00:48:15.306Z,16.03
2018-09-19T00:50:43.674Z,17.97
2018-09-19T00:53:12.062Z,20.43
2018-09-19T00:55:40.426Z,17.73
2018-09-19T00:58:08.822Z,16.70
2018-09-19T01:00:37.188Z,15.80
2018-09-19T01:03:05.614Z,14.30
2018-09-19T01:05:33.984Z,11.83
2018-09-19T01:08:02.390Z,24.10
2018-09-19T01:10:30.762Z,21.63
2018-09-19T01:12:59.166Z,20.40
2018-09-19T01:15:27.538Z,18.27
2018-09-19T01:17:55.948Z,10.80
2018-09-19T01:20:24.322Z,18.67
2018-09-19T01:22:52.707Z,22.97
2018-09-19T01:25:21.128Z,23.97
2018-09-19T01:27:49.519Z,20.07
2018-09-19T01:30:17.938Z,16.87
2018-09-19T01:32:46.317Z,18.80
2018-09-19T01:35:14.726Z,26.87
2018-09-19T01:37:43.100Z,19.37
2018-09-19T01:40:11.503Z,23.27
2018-09-19T01:42:39.874Z,21.00
2018-09-19T01:45:08.297Z,15.03
2018-09-19T01:47:36.671Z,15.30
2018-09-19T01:50:05.163Z,22.57
2018-09-19T01:52:33.507Z,24.60
2018-09-19T01:55:01.918Z,26.03
2018-09-19T01:57:30.309Z,39.60
2018-09-19T01:59:58.703Z,18.40
2018-09-19T02:02:27.107Z,16.70
2018-09-19T02:04:56.015Z,23.00
2018-09-19T02:07:24.389Z,26.10
2018-09-19T02:09:52.794Z,21.20
2018-09-19T02:12:21.166Z,26.20
2018-09-19T02:14:49.570Z,20.83
2018-09-19T02:17:17.938Z,23.13
2018-09-19T02:19:46.334Z,26.43
2018-09-19T02:22:14.710Z,15.17
2018-09-19T02:24:43.427Z,16.43
2018-09-19T02:27:11.798Z,23.90
2018-09-19T02:29:40.199Z,25.60
2018-09-19T02:32:08.574Z,24.63
2018-09-19T02:34:37.011Z,16.50
2018-09-19T02:37:05.390Z,17.90
2018-09-19T02:39:33.793Z,23.70
2018-09-19T02:42:02.196Z,20.33
2018-09-19T02:44:30.590Z,25.73
2018-09-19T02:46:58.971Z,22.33
2018-09-19T02:49:27.375Z,22.63
2018-09-19T02:51:59.458Z,26.33
2018-09-19T02:54:29.410Z,20.43
2018-09-19T02:56:57.970Z,27.67
2018-09-19T02:59:26.575Z,23.70
2018-09-19T03:01:54.965Z,35.17
2018-09-19T03:04:23.375Z,22.33
2018-09-19T03:06:51.753Z,26.23
2018-09-19T03:09:20.164Z,34.00
2018-09-19T03:11:48.538Z,19.00
2018-09-19T03:14:16.939Z,26.00
2018-09-19T03:16:45.322Z,22.27
2018-09-19T03:19:13.713Z,31.03
2018-09-19T03:21:42.087Z,18.50
2018-09-19T03:24:10.502Z,34.97
2018-09-19T03:26:38.899Z,33.87
2018-09-19T03:29:07.280Z,21.13
2018-09-19T03:31:35.685Z,31.20
2018-09-19T03:34:04.085Z,25.77
2018-09-19T03:36:32.490Z,23.70
2018-09-19T03:39:00.872Z,27.63
2018-09-19T03:41:29.278Z,22.80
2018-09-19T03:43:57.650Z,25.90
2018-09-19T03:46:26.059Z,25.50
2018-09-19T03:48:54.435Z,18.87
2018-09-19T03:51:22.841Z,29.23
2018-09-19T03:53:51.233Z,22.93
2018-09-19T03:56:19.660Z,26.70
2018-09-19T03:58:48.428Z,28.30
2018-09-19T04:01:16.845Z,32.43
2018-09-19T04:03:45.219Z,34.63
2018-09-19T04:06:13.628Z,45.93
2018-09-19T04:08:42.009Z,27.63
2018-09-19T04:11:10.409Z,29.40
2018-09-19T04:13:38.815Z,36.63
2018-09-19T04:16:07.234Z,21.63
2018-09-19T04:18:35.620Z,33.83
2018-09-19T04:21:04.010Z,37.23
2018-09-19T04:23:32.383Z,28.30
2018-09-19T04:26:00.814Z,26.07
2018-09-19T04:28:29.194Z,28.50
2018-09-19T04:30:57.648Z,21.70
2018-09-19T04:33:26.016Z,27.53
2018-09-19T04:35:54.405Z,37.27
2018-09-19T04:38:22.789Z,41.00
2018-09-19T04:40:51.177Z,41.47
2018-09-19T04:43:19.555Z,30.33
2018-09-19T04:45:47.958Z,31.40
2018-09-19T04:48:16.358Z,42.30
2018-09-19T04:50:44.756Z,45.87
2018-09-19T04:53:13.121Z,29.27
2018-09-19T04:55:41.530Z,37.33
2018-09-19T04:58:09.915Z,47.40
2018-09-19T05:00:38.315Z,38.10
2018-09-19T05:03:06.691Z,25.67
2018-09-19T05:05:35.161Z,28.87
2018-09-19T05:08:03.507Z,24.20
2018-09-19T05:15:28.947Z,27.60
2018-09-19T05:17:57.315Z,30.93
2018-09-19T05:20:26.037Z,38.00
2018-09-19T05:22:54.916Z,42.43
2018-09-19T05:25:23.543Z,34.83
2018-09-19T05:27:51.923Z,35.77
2018-09-19T05:30:20.305Z,33.93
2018-09-19T05:32:48.703Z,50.67
2018-09-19T05:35:17.074Z,32.50
2018-09-19T05:37:45.478Z,29.07
2018-09-19T05:40:13.853Z,41.90
2018-09-19T05:42:42.249Z,29.17
2018-09-19T05:45:10.636Z,37.23
2018-09-19T05:47:39.035Z,31.23
2018-09-19T05:50:07.412Z,34.87
2018-09-19T05:52:35.814Z,38.63
2018-09-19T05:55:04.194Z,28.73
2018-09-19T05:57:32.594Z,40.23
2018-09-19T06:00:01.100Z,49.37
2018-09-19T06:02:29.504Z,27.87
2018-09-19T06:04:57.908Z,34.87
2018-09-19T06:07:26.335Z,30.77
2018-09-19T06:09:54.705Z,38.10
2018-09-19T06:12:23.106Z,24.13
2018-09-19T06:14:51.490Z,23.20
2018-09-19T06:17:19.895Z,25.73
2018-09-19T06:19:48.339Z,38.97
2018-09-19T06:22:16.734Z,41.03
2018-09-19T06:24:45.126Z,36.20
2018-09-19T06:27:13.574Z,28.40
2018-09-19T06:29:41.914Z,21.07
2018-09-19T06:32:10.303Z,37.63
2018-09-19T06:34:38.680Z,29.03
2018-09-19T06:37:07.109Z,32.43
2018-09-19T06:39:35.472Z,42.50
2018-09-19T06:42:03.867Z,26.57
2018-09-19T06:44:32.250Z,27.40
2018-09-19T06:47:00.711Z,24.17
2018-09-19T06:49:29.044Z,36.53
2018-09-19T06:51:57.492Z,39.60
2018-09-19T06:54:25.830Z,33.77
2018-09-19T06:56:54.223Z,33.30
2018-09-19T06:59:22.684Z,27.07
2018-09-19T07:01:51.094Z,30.80
2018-09-19T07:04:19.464Z,31.83
2018-09-19T07:06:47.952Z,26.87
2018-09-19T07:09:16.318Z,28.80
2018-09-19T07:11:44.715Z,28.40
2018-09-19T07:14:13.089Z,37.30
2018-09-19T07:16:41.498Z,23.87
2018-09-19T07:19:09.865Z,29.30
2018-09-19T07:21:38.433Z,26.27
2018-09-19T07:24:06.808Z,29.60
2018-09-19T07:26:35.199Z,24.07
2018-09-19T07:29:03.677Z,29.43
2018-09-19T07:31:32.041Z,40.83
2018-09-19T07:34:01.435Z,34.87
2018-09-19T07:36:29.806Z,28.23
2018-09-19T07:38:58.204Z,31.37
2018-09-19T07:41:26.570Z,33.17
2018-09-19T07:43:54.969Z,36.50
2018-09-19T07:46:23.590Z,35.70
2018-09-19T07:48:52.003Z,23.80
2018-09-19T07:51:20.375Z,28.57
2018-09-19T07:53:48.767Z,32.13
2018-09-19T07:56:17.178Z,36.57
2018-09-19T07:58:45.567Z,20.33
2018-09-19T08:01:14.002Z,34.57
2018-09-19T08:03:42.357Z,28.20
2018-09-19T08:06:10.738Z,29.93
2018-09-19T08:08:39.133Z,29.93
2018-09-19T08:11:07.504Z,34.13
2018-09-19T08:13:35.939Z,38.50
2018-09-19T08:16:04.309Z,34.60
2018-09-19T08:18:32.797Z,28.47
2018-09-19T08:21:01.186Z,26.40
2018-09-19T08:23:29.602Z,44.30
2018-09-19T08:25:58.000Z,23.00
2018-09-19T08:28:26.416Z,30.73
2018-09-19T08:30:54.784Z,29.40
2018-09-19T08:33:23.187Z,37.60
2018-09-19T08:35:51.557Z,39.53
2018-09-19T08:38:19.944Z,28.73
2018-09-19T08:45:41.477Z,32.40
2018-09-19T08:48:09.925Z,38.93
2018-09-19T08:50:38.301Z,51.00
2018-09-19T08:53:06.710Z,25.97
2018-09-19T08:55:35.079Z,33.40
2018-09-19T08:58:03.485Z,23.73
2018-09-19T09:00:31.890Z,24.63
2018-09-19T09:03:00.287Z,32.03
2018-09-19T09:05:28.725Z,28.73
2018-09-19T09:07:57.074Z,26.30
2018-09-19T09:10:25.449Z,29.73
2018-09-19T09:12:53.849Z,41.77
2018-09-19T09:15:22.225Z,31.20
2018-09-19T09:17:50.620Z,31.43
2018-09-19T09:20:18.982Z,35.13
2018-09-19T09:22:47.351Z,41.50
2018-09-19T09:25:15.865Z,23.93
2018-09-19T09:27:44.248Z,23.83
2018-09-19T09:30:12.644Z,20.93
2018-09-19T09:32:41.015Z,31.50
2018-09-19T09:35:09.403Z,31.47
2018-09-19T09:37:37.779Z,23.50
2018-09-19T09:40:06.191Z,23.73
2018-09-19T09:42:34.560Z,27.63
2018-09-19T09:45:02.958Z,27.60
2018-09-19T09:47:31.327Z,28.70
2018-09-19T09:49:59.719Z,20.87
2018-09-19T09:52:28.108Z,21.73
2018-09-19T09:54:56.502Z,29.23
2018-09-19T09:57:24.876Z,29.03
2018-09-19T09:59:53.275Z,22.53
2018-09-19T10:02:21.662Z,29.53
2018-09-19T10:04:50.083Z,22.33
2018-09-19T10:07:18.449Z,27.10
2018-09-19T10:09:46.844Z,26.97
2018-09-19T10:12:15.215Z,29.80
2018-09-19T10:14:43.604Z,26.27
2018-09-19T10:17:11.974Z,14.37
2018-09-19T10:19:40.362Z,27.60
2018-09-19T10:22:08.741Z,23.93
2018-09-19T10:24:37.164Z,27.23
2018-09-19T10:27:05.538Z,30.33
2018-09-19T10:29:33.977Z,27.03
2018-09-19T10:32:02.347Z,12.10
2018-09-19T10:34:30.737Z,16.33
2018-09-19T10:36:59.110Z,23.40
2018-09-19T10:39:27.498Z,25.73
2018-09-19T10:41:55.870Z,15.20
2018-09-19T10:44:24.259Z,21.87
2018-09-19T10:46:52.643Z,17.77
2018-09-19T10:49:21.064Z,16.77
2018-09-19T10:51:49.450Z,15.47
2018-09-19T10:54:17.848Z,14.13
2018-09-19T10:56:46.233Z,16.43
2018-09-19T10:59:14.655Z,16.50
2018-09-19T11:01:43.070Z,10.77
2018-09-19T11:04:11.551Z,6.20
2018-09-19T11:06:39.918Z,7.10
2018-09-19T11:09:10.298Z,7.87
2018-09-19T11:11:38.830Z,13.53
2018-09-19T11:14:07.277Z,7.67
2018-09-19T11:16:35.650Z,6.90
2018-09-19T11:19:04.038Z,7.30
2018-09-19T11:21:32.415Z,15.87
2018-09-19T11:24:00.823Z,4.57
2018-09-19T11:26:29.252Z,8.70
2018-09-19T11:28:57.631Z,7.23
2018-09-19T11:31:26.032Z,10.87
2018-09-19T11:33:54.398Z,5.20
2018-09-19T11:36:22.785Z,9.33
2018-09-19T11:38:51.141Z,6.60
2018-09-19T11:41:19.530Z,7.50
2018-09-19T11:43:47.907Z,7.30
2018-09-19T11:46:16.304Z,13.63
2018-09-19T11:48:44.729Z,7.57
2018-09-19T11:51:13.109Z,5.30
2018-09-19T11:53:41.494Z,4.00
2018-09-19T11:56:09.883Z,8.60
2018-09-19T11:58:38.254Z,10.93
2018-09-19T12:01:07.003Z,7.93
2018-09-19T12:03:35.421Z,6.53
2018-09-19T12:06:03.999Z,6.83
2018-09-19T12:08:32.367Z,2.53
2018-09-19T12:11:00.762Z,5.40
2018-09-19T12:13:29.121Z,14.03
2018-09-19T12:15:57.518Z,3.97
2018-09-19T12:18:25.885Z,8.50
2018-09-19T12:20:54.283Z,17.00
2018-09-19T12:23:22.655Z,4.13
2018-09-19T12:25:51.097Z,7.47
2018-09-19T12:28:19.471Z,4.00
2018-09-19T12:30:47.864Z,5.43
2018-09-19T12:33:16.250Z,4.87
2018-09-19T12:35:44.654Z,11.77
2018-09-19T12:38:13.027Z,2.20
2018-09-19T12:40:42.575Z,2.10
2018-09-19T12:43:10.937Z,4.83
2018-09-19T12:45:39.330Z,3.20
2018-09-19T12:48:07.706Z,8.23
2018-09-19T12:50:36.104Z,3.13
2018-09-19T12:53:04.538Z,1.90
2018-09-19T12:55:32.943Z,13.00
2018-09-19T12:58:01.310Z,3.57
2018-09-19T13:00:29.711Z,5.10
2018-09-19T13:02:58.711Z,5.80
2018-09-19T13:05:27.103Z,15.70
2018-09-19T13:07:55.474Z,6.97
2018-09-19T13:10:23.858Z,2.40
2018-09-19T13:12:52.227Z,4.13
2018-09-19T13:15:20.632Z,5.97
2018-09-19T13:17:49.001Z,8.93
2018-09-19T13:20:17.404Z,20.83
2018-09-19T13:22:45.772Z,5.70
2018-09-19T13:25:14.166Z,3.37
2018-09-19T13:27:42.559Z,4.00
2018-09-19T13:30:10.923Z,3.87
2018-09-19T13:32:39.326Z,3.40
2018-09-19T13:35:07.691Z,8.73
2018-09-19T13:37:36.078Z,5.17
2018-09-19T13:40:04.727Z,7.73
2018-09-19T13:42:33.123Z,5.57
2018-09-19T13:45:01.646Z,13.57
2018-09-19T13:47:30.051Z,8.63
2018-09-19T13:50:07.871Z,6.73
2018-09-19T13:52:36.268Z,8.00
2018-09-19T13:55:04.728Z,12.07
2018-09-19T13:57:33.118Z,7.27
2018-09-19T14:00:01.497Z,10.93
2018-09-19T14:02:29.919Z,9.80
2018-09-19T14:04:58.292Z,15.63
2018-09-19T14:07:26.688Z,17.33
2018-09-19T14:09:55.054Z,19.17
2018-09-19T14:12:23.498Z,13.63
2018-09-19T14:14:51.837Z,14.93
2018-09-19T14:17:20.234Z,16.80
2018-09-19T14:19:48.605Z,9.70
2018-09-19T14:22:17.002Z,13.17
2018-09-19T14:24:45.393Z,13.63
2018-09-19T14:27:13.781Z,16.30
2018-09-19T14:29:42.161Z,11.00
2018-09-19T14:32:10.550Z,21.10
2018-09-19T14:34:38.922Z,5.83
2018-09-19T14:37:07.318Z,17.03
2018-09-19T14:39:35.711Z,13.60
2018-09-19T14:42:04.120Z,11.70
2018-09-19T14:44:32.499Z,15.87
2018-09-19T14:47:00.888Z,12.10
2018-09-19T14:49:29.263Z,12.83
2018-09-19T14:51:57.679Z,5.63
2018-09-19T14:54:26.102Z,7.23
2018-09-19T14:56:55.027Z,10.17
2018-09-19T14:59:23.402Z,14.23
2018-09-19T15:01:52.086Z,13.47
2018-09-19T15:04:20.650Z,19.00
2018-09-19T15:06:49.047Z,22.37
2018-09-19T15:09:17.423Z,13.00
2018-09-19T15:11:45.844Z,19.60
2018-09-19T15:14:14.219Z,14.60
2018-09-19T15:16:42.660Z,26.63
2018-09-19T15:19:11.040Z,12.60
2018-09-19T15:21:39.487Z,17.47
2018-09-19T15:24:07.882Z,15.90
2018-09-19T15:26:36.315Z,21.90
2018-09-19T15:29:04.703Z,9.53
2018-09-19T15:31:33.070Z,24.83
2018-09-19T15:34:01.471Z,26.00
2018-09-19T15:36:29.848Z,20.80
2018-09-19T15:38:58.233Z,13.07
2018-09-19T15:41:26.618Z,19.07
2018-09-19T15:43:55.014Z,20.70
2018-09-19T15:46:23.405Z,17.67
2018-09-19T15:48:51.807Z,33.47
2018-09-19T15:51:20.183Z,16.20
2018-09-19T15:53:48.569Z,24.53
2018-09-19T15:56:16.930Z,12.30
2018-09-19T15:58:45.327Z,19.83
2018-09-19T16:01:13.699Z,11.67
2018-09-19T16:03:42.107Z,21.03
2018-09-19T16:06:10.554Z,14.33
2018-09-19T16:08:38.918Z,35.53
2018-09-19T16:11:07.447Z,25.90
2018-09-19T16:13:35.854Z,19.07
2018-09-19T16:16:04.250Z,18.83
2018-09-19T16:18:32.642Z,17.63
2018-09-19T16:21:01.044Z,26.40
2018-09-19T16:23:29.452Z,27.83
2018-09-19T16:25:57.973Z,13.80
2018-09-19T16:28:26.367Z,16.87
2018-09-19T16:30:54.743Z,17.23
2018-09-19T16:33:23.138Z,17.17
2018-09-19T16:35:51.520Z,11.23
2018-09-19T16:38:19.910Z,13.93
2018-09-19T16:40:48.277Z,24.97
2018-09-19T16:43:16.680Z,19.23
2018-09-19T16:45:45.085Z,12.83
2018-09-19T16:48:13.483Z,12.53
2018-09-19T16:50:41.915Z,19.50
2018-09-19T16:53:10.317Z,27.40
2018-09-19T16:55:38.699Z,10.80
2018-09-19T16:58:07.109Z,10.53
2018-09-19T17:00:35.483Z,14.90
2018-09-19T17:03:03.882Z,16.13
2018-09-19T17:05:32.284Z,9.27
2018-09-19T17:08:00.725Z,20.73
2018-09-19T17:10:29.137Z,16.17
2018-09-19T17:12:57.529Z,17.50
2018-09-19T17:15:25.971Z,22.93
2018-09-19T17:17:54.329Z,20.07
2018-09-19T17:20:22.706Z,21.20
2018-09-19T17:22:51.090Z,17.03
2018-09-19T17:25:19.509Z,19.80
2018-09-19T17:27:47.877Z,20.13
2018-09-19T17:30:16.279Z,16.83
2018-09-19T17:32:44.646Z,14.77
2018-09-19T17:35:13.039Z,18.77
2018-09-19T17:37:41.452Z,12.30
2018-09-19T17:40:09.851Z,18.93
2018-09-19T17:42:38.238Z,25.27
2018-09-19T17:45:06.999Z,19.77
2018-09-19T17:47:35.531Z,30.07
2018-09-19T17:50:03.971Z,19.70
2018-09-19T17:52:32.347Z,19.77
2018-09-19T17:55:00.738Z,27.27
2018-09-19T17:57:29.107Z,14.87
2018-09-19T17:59:57.507Z,15.17
2018-09-19T18:02:25.990Z,18.67
2018-09-19T18:04:54.821Z,31.87
2018-09-19T18:07:23.199Z,23.23
2018-09-19T18:09:51.590Z,23.87
2018-09-19T18:12:19.962Z,25.07
2018-09-19T18:14:48.390Z,23.43
2018-09-19T18:17:16.748Z,19.13
2018-09-19T18:19:45.156Z,22.40
2018-09-19T18:22:13.531Z,27.37
2018-09-19T18:24:41.951Z,26.67
2018-09-19T18:27:10.368Z,35.77
2018-09-19T18:29:38.759Z,14.77
2018-09-19T18:32:07.161Z,32.03
2018-09-19T18:34:35.545Z,25.17
2018-09-19T18:37:03.904Z,19.40
2018-09-19T18:39:32.308Z,23.87
2018-09-19T18:42:00.679Z,22.80
2018-09-19T18:44:29.071Z,21.20
2018-09-19T18:46:57.446Z,17.47
2018-09-19T18:49:25.840Z,12.43
2018-09-19T18:51:54.223Z,18.20
2018-09-19T18:54:23.625Z,12.87
2018-09-19T18:56:52.615Z,17.90
2018-09-19T18:59:21.178Z,21.50
2018-09-19T19:01:50.583Z,15.00
2018-09-19T19:04:19.027Z,19.57
2018-09-19T19:06:47.403Z,20.13
2018-09-19T19:09:15.796Z,12.00
2018-09-19T19:11:44.179Z,20.30
2018-09-19T19:14:12.573Z,18.43
2018-09-19T19:16:40.945Z,16.77
2018-09-19T19:19:09.343Z,12.83
2018-09-19T19:21:37.715Z,25.90
2018-09-19T19:24:06.099Z,28.57
2018-09-19T19:26:34.505Z,14.17
2018-09-19T19:29:02.878Z,14.53
2018-09-19T19:31:31.271Z,29.63
2018-09-19T19:33:59.637Z,16.13
2018-09-19T19:36:28.040Z,37.20
2018-09-19T19:38:56.420Z,21.10
2018-09-19T19:41:24.818Z,24.90
2018-09-19T19:43:53.257Z,24.23
2018-09-19T19:46:21.771Z,12.57
2018-09-19T19:48:50.133Z,30.57
2018-09-19T19:51:18.532Z,15.60
2018-09-19T19:53:47.152Z,19.40
2018-09-19T19:56:15.702Z,19.17
2018-09-19T19:58:44.082Z,22.23
2018-09-19T20:01:12.551Z,12.53
2018-09-19T20:03:40.927Z,20.87
2018-09-19T20:06:09.403Z,20.90
2018-09-19T20:08:37.775Z,14.13
2018-09-19T20:11:06.181Z,15.63
2018-09-19T20:13:34.553Z,18.37
2018-09-19T20:16:02.951Z,28.00
2018-09-19T20:18:31.338Z,18.30
2018-09-19T20:20:59.738Z,18.50
2018-09-19T20:23:28.115Z,17.80
2018-09-19T20:25:56.530Z,28.07
2018-09-19T20:28:24.910Z,23.70
2018-09-19T20:30:53.307Z,29.53
2018-09-19T20:33:21.715Z,17.83
2018-09-19T20:35:50.174Z,23.77
2018-09-19T20:38:18.545Z,19.00
2018-09-19T20:40:46.943Z,14.00
2018-09-19T20:43:15.327Z,26.97
2018-09-19T20:45:43.731Z,20.50
2018-09-19T20:48:12.112Z,20.80
2018-09-19T20:50:40.511Z,24.73
2018-09-19T20:53:08.890Z,16.17
2018-09-19T20:55:37.291Z,19.97
2018-09-19T20:58:05.674Z,18.97
2018-09-19T21:00:34.065Z,25.50
2018-09-19T21:03:02.436Z,20.27
2018-09-19T21:05:30.830Z,21.00
2018-09-19T21:07:59.215Z,21.20
2018-09-19T21:10:27.613Z,31.37
2018-09-19T21:12:55.995Z,20.77
2018-09-19T21:15:24.422Z,32.73
2018-09-19T21:17:52.800Z,19.23
2018-09-19T21:20:21.226Z,20.20
2018-09-19T21:22:49.606Z,40.13
2018-09-19T21:25:18.006Z,25.07
2018-09-19T21:27:46.406Z,29.10
2018-09-19T21:30:14.783Z,23.53
2018-09-19T21:32:43.191Z,20.17
2018-09-19T21:35:11.565Z,18.90
2018-09-19T21:37:39.971Z,20.70
2018-09-19T21:40:08.381Z,23.33
2018-09-19T21:42:36.782Z,21.83
2018-09-19T21:45:05.390Z,23.93
2018-09-19T21:47:33.803Z,23.93
2018-09-19T21:50:02.421Z,19.70
2018-09-19T21:52:30.937Z,26.57
2018-09-19T21:54:59.596Z,26.07
2018-09-19T21:57:28.098Z,21.43
2018-09-19T21:59:56.483Z,50.73
2018-09-19T22:02:24.887Z,18.47
2018-09-19T22:04:53.264Z,16.50
2018-09-19T22:07:21.667Z,14.40
2018-09-19T22:09:50.038Z,16.30
2018-09-19T22:12:18.438Z,22.40
2018-09-19T22:14:46.817Z,29.13
2018-09-19T22:17:15.219Z,21.13
2018-09-19T22:19:43.595Z,39.57
2018-09-19T22:22:12.018Z,16.27
2018-09-19T22:24:40.426Z,18.73
2018-09-19T22:27:08.826Z,21.30
2018-09-19T22:29:37.211Z,15.10
2018-09-19T22:32:05.611Z,21.40
2018-09-19T22:34:33.986Z,22.87
2018-09-19T22:37:02.394Z,22.07
2018-09-19T22:39:30.778Z,19.93
2018-09-19T22:41:59.178Z,24.17
2018-09-19T22:44:27.553Z,43.07
2018-09-19T22:46:55.952Z,24.90
2018-09-19T22:49:24.332Z,25.50
2018-09-19T22:51:52.723Z,24.17
2018-09-19T22:54:21.090Z,43.37
2018-09-19T22:56:49.484Z,25.17
2018-09-19T22:59:17.859Z,16.47
2018-09-19T23:01:46.309Z,26.03
2018-09-19T23:04:14.666Z,30.00
2018-09-19T23:06:43.057Z,34.10
2018-09-19T23:09:11.439Z,30.33
2018-09-19T23:11:39.846Z,25.00
2018-09-19T23:14:08.228Z,27.43
2018-09-19T23:16:36.617Z,17.60
2018-09-19T23:19:04.997Z,18.03
2018-09-19T23:21:33.486Z,19.10
2018-09-19T23:24:01.882Z,24.77
2018-09-19T23:26:30.297Z,31.13
2018-09-19T23:28:58.730Z,21.07
2018-09-19T23:31:27.097Z,17.50
2018-09-19T23:33:55.498Z,21.33
2018-09-19T23:36:23.866Z,24.50
2018-09-19T23:38:52.267Z,18.30
2018-09-19T23:41:20.646Z,24.20
2018-09-19T23:43:49.089Z,19.33
2018-09-19T23:46:17.468Z,17.47
2018-09-19T23:48:45.863Z,21.30
2018-09-19T23:51:14.242Z,14.33
2018-09-19T23:53:42.642Z,15.03
2018-09-19T23:56:11.018Z,20.00
2018-09-19T23:58:39.418Z,23.40
